Airfield :
LOGIN :

Register | Disclaimer

   EN    FR    IT 

 










Legend :    VFR   Marginal VFR   IFR   Intensive IFR   Very Intensive IFR
Visi :
Ceiling :
>= 8 km
>= 3000ft
5 to 8 km
1000 to 3000 ft
1500m to 5 km
500 to 1000 ft
800 to 1500m
200 to 500 ft
< 800m
< 200 ft
Symbols :   Thunderstorms  Fog  Heavy snow  Heavy precipitations  Wind > 20 kt
SIGMETs :     Misc.  Thunderstorms  Icing  Turbulence  Mountain Waves  Volcanic Ashes







- Airport Elevation : 124 ft
- IATA code : NHT
- Download approach charts


EGWU - RAF Northolt

CURRENT METAR :
  • 240650Z 21007KT 9999 BKN010 16/14 Q1017 NOSIG

EXPIRED METARs :
  • 240550Z 21006KT 9999 BKN011 BKN018 16/14 Q1017 NOSIG
  • 240450Z AUTO 24006KT 9999 // BKN006/// BKN015/// 15/14 Q1017

TAF AMD TAF EGWU
Valid from the 24 at 06:00 until the 25 at 00:00 UTC


240557Z 2406/2424 23010KT 9999 BKN012
PROB30
TEMPO 2406/2409 5000 -RADZ SCT006
PROB40
TEMPO 2412/2422 BKN016
TEMPO 2422/2424 FEW018
No reported NOTAMs for that airfield.



MET'MAP, your aeronautical weather chart ! - Copyright ORBIFLY December 2007 - Disclaimer

ORBIFLY MET'MAP TEAM :

Programming & Development : Alexandra Zaïnal
Concept & Development : Baudouin d'Aumeries
Co-Development & Prog : Marc-Olivier Méhu
Technical & hardware support : Manuel Goepfert

Contact : metmap@orbifly.com




SOURCES & CREDITS :

   NOAA